Time;durP1;ratioP1;P1;durP2;ratioP2;P2;SDS_P1;SDS_P2;PMS_P1;PMS_P2;Temp;Humidity;BMP_temperature;BMP_pressure;BME280_temperature;BME280_humidity;BME280_pressure;Samples;Min_cycle;Max_cycle;Signal;HPM_P1;HPM_P2
2023/11/27 00:01:03;;;;;;;15.47;9.77;;;3.50;84.10;;;5.55;60.14;97304.53;5014374;28;20053;-60
2023/11/27 00:03:31;;;;;;;19.67;11.10;;;3.40;84.90;;;5.51;59.95;97299.53;5014153;28;20054;-60
2023/11/27 00:05:59;;;;;;;19.93;9.90;;;3.30;85.90;;;5.49;60.05;97303.28;5014104;28;20053;-60
2023/11/27 00:08:26;;;;;;;17.90;8.37;;;3.30;86.10;;;5.45;60.11;97296.63;5014755;28;20080;-60
2023/11/27 00:10:54;;;;;;;15.83;7.87;;;3.20;86.40;;;5.42;59.75;97296.88;5014054;28;20415;-60
2023/11/27 00:13:25;;;;;;;18.80;9.13;;;3.20;86.40;;;5.41;60.43;97292.56;5014287;28;20056;-60
2023/11/27 00:15:52;;;;;;;8.97;4.60;;;3.20;86.70;;;5.41;60.52;97292.56;5013532;28;20053;-60
2023/11/27 00:18:20;;;;;;;7.00;4.50;;;3.20;86.80;;;5.41;60.51;97289.91;5013942;28;20041;-60
2023/11/27 00:20:48;;;;;;;7.80;5.90;;;3.20;86.80;;;5.39;60.45;97279.53;5013833;28;20419;-60
2023/11/27 00:23:15;;;;;;;24.43;10.30;;;3.20;86.80;;;5.39;60.05;97281.31;5012915;28;20050;-59
2023/11/27 00:25:43;;;;;;;21.83;10.27;;;3.20;87.30;;;5.35;61.00;97283.41;5013452;28;20054;-59
2023/11/27 00:28:10;;;;;;;17.50;8.77;;;3.20;87.20;;;5.32;60.72;97273.94;5012894;28;20057;-60
2023/11/27 00:30:38;;;;;;;23.60;11.73;;;3.20;87.30;;;5.27;60.63;97265.63;5013338;28;20050;-60
2023/11/27 00:33:06;;;;;;;16.90;9.70;;;3.10;88.20;;;5.28;60.57;97258.53;5013938;28;20061;-59
2023/11/27 00:35:34;;;;;;;18.47;8.93;;;3.20;88.40;;;5.29;60.81;97258.41;5012308;28;20422;-60
2023/11/27 00:38:01;;;;;;;20.53;9.90;;;3.20;88.10;;;5.28;60.91;97254.06;5012415;28;20061;-59
2023/11/27 00:40:29;;;;;;;18.20;9.70;;;3.20;88.20;;;5.30;61.04;97257.41;5012147;28;20072;-61
2023/11/27 00:42:58;;;;;;;13.43;7.17;;;3.20;88.00;;;5.31;60.54;97255.59;5012144;28;20053;-59
2023/11/27 00:45:25;;;;;;;7.80;5.20;;;3.20;88.60;;;5.28;60.86;97253.25;5013826;28;20392;-59
2023/11/27 00:47:55;;;;;;;8.70;5.50;;;3.20;88.10;;;5.24;61.20;97244.75;5004412;28;20077;-60
2023/11/27 00:50:23;;;;;;;16.57;9.17;;;3.10;88.70;;;5.23;60.87;97242.25;5012316;28;20054;-60
2023/11/27 00:52:51;;;;;;;10.20;6.13;;;3.10;88.40;;;5.20;60.70;97229.34;5012235;28;20045;-60
2023/11/27 00:55:18;;;;;;;15.97;8.17;;;3.10;89.20;;;5.23;60.80;97232.53;5012878;28;20526;-59
2023/11/27 00:57:46;;;;;;;12.47;7.77;;;3.10;88.70;;;5.22;61.39;97225.59;5012207;28;20049;-59
2023/11/27 01:00:14;;;;;;;10.87;5.73;;;3.10;88.80;;;5.24;61.51;97220.19;5013267;28;20495;-60
2023/11/27 01:02:42;;;;;;;7.10;5.03;;;3.10;88.80;;;5.21;61.62;97215.16;5012281;28;20180;-59
2023/11/27 01:05:10;;;;;;;8.40;4.50;;;3.10;88.80;;;5.22;61.46;97216.84;5011311;28;20057;-60
2023/11/27 01:07:37;;;;;;;6.17;4.13;;;3.10;88.80;;;5.22;61.28;97211.56;5013287;28;20073;-60
2023/11/27 01:10:07;;;;;;;6.50;4.10;;;3.10;88.90;;;5.20;61.42;97206.44;5011954;28;20058;-60
2023/11/27 01:12:34;;;;;;;6.50;4.27;;;3.10;88.70;;;5.19;61.64;97199.47;5011940;28;20049;-60
2023/11/27 01:15:03;;;;;;;5.77;3.87;;;3.10;88.60;;;5.15;61.27;97198.06;5011343;28;20046;-60
2023/11/27 01:17:30;;;;;;;6.80;4.60;;;3.00;88.90;;;5.16;61.24;97191.84;5012099;28;20053;-60
2023/11/27 01:19:58;;;;;;;6.27;4.43;;;3.10;89.10;;;5.17;61.45;97185.56;5011603;28;20461;-59
2023/11/27 01:22:26;;;;;;;5.83;4.23;;;3.10;88.90;;;5.18;61.44;97184.63;5011761;28;20054;-60
2023/11/27 01:24:53;;;;;;;6.77;3.70;;;3.10;88.60;;;5.20;61.33;97180.03;5011633;28;20456;-60
2023/11/27 01:27:21;;;;;;;7.47;4.30;;;3.10;88.40;;;5.18;61.47;97175.88;5012749;28;20067;-60
2023/11/27 01:29:48;;;;;;;7.20;3.97;;;3.00;88.50;;;5.18;61.16;97170.59;5011382;28;20056;-60
2023/11/27 01:32:16;;;;;;;6.10;3.93;;;3.10;88.90;;;5.17;60.81;97161.00;5008798;28;20050;-59
2023/11/27 01:34:44;;;;;;;5.50;4.00;;;3.00;88.10;;;5.15;61.05;97160.31;5011589;28;20046;-59
2023/11/27 01:37:11;;;;;;;9.47;4.63;;;3.00;88.90;;;5.15;61.13;97147.13;5012735;28;20094;-60
2023/11/27 01:39:39;;;;;;;7.20;4.53;;;3.00;88.70;;;5.09;61.32;97159.06;5011416;28;20495;-59
2023/11/27 01:42:06;;;;;;;7.37;3.97;;;2.90;88.50;;;5.05;61.44;97149.75;5011446;28;20499;-60
2023/11/27 01:44:35;;;;;;;5.70;4.37;;;2.90;89.30;;;4.97;61.41;97139.88;5012060;28;20037;-60
2023/11/27 01:47:05;;;;;;;4.70;3.43;;;2.80;89.00;;;4.87;61.39;97142.53;5010594;28;20065;-59
2023/11/27 01:49:33;;;;;;;6.00;4.13;;;2.70;89.90;;;4.82;61.64;97136.81;5012065;28;20045;-60
2023/11/27 01:52:01;;;;;;;6.23;3.90;;;2.60;90.60;;;4.82;62.04;97131.53;5012240;28;20049;-59
2023/11/27 01:54:30;;;;;;;7.93;3.53;;;2.70;90.70;;;4.83;61.63;97127.13;5010828;28;20376;-60
2023/11/27 01:56:59;;;;;;;6.00;4.30;;;2.70;90.80;;;4.79;61.89;97131.84;4994353;28;20048;-60
2023/11/27 01:59:27;;;;;;;5.93;3.97;;;2.70;90.90;;;4.79;61.49;97118.66;4994994;28;20538;-59
2023/11/27 02:01:57;;;;;;;5.33;3.47;;;2.70;91.30;;;4.79;62.24;97121.28;5010761;28;20054;-60
2023/11/27 02:04:25;;;;;;;4.77;3.27;;;2.70;91.40;;;4.79;62.54;97126.56;4994249;28;20049;-60
2023/11/27 02:06:53;;;;;;;6.83;3.57;;;2.70;91.70;;;4.79;61.88;97118.66;5010930;28;20103;-59
2023/11/27 02:09:21;;;;;;;4.60;3.20;;;2.70;91.20;;;4.83;61.55;97120.03;4994589;28;20049;-60
2023/11/27 02:11:50;;;;;;;6.00;3.00;;;2.80;90.30;;;4.87;61.80;97121.41;5010746;28;20049;-60
2023/11/27 02:14:18;;;;;;;4.03;3.03;;;2.90;89.80;;;4.87;61.56;97116.16;5010180;28;20046;-60
2023/11/27 02:16:46;;;;;;;6.30;3.40;;;2.90;89.30;;;4.86;61.85;97109.19;5010931;28;20497;-60
2023/11/27 02:19:14;;;;;;;5.80;3.60;;;2.90;89.10;;;4.86;62.03;97103.09;5002175;28;20038;-60
2023/11/27 02:21:45;;;;;;;5.63;3.00;;;2.80;89.50;;;4.86;62.04;97103.09;5011823;28;20491;-60
2023/11/27 02:24:13;;;;;;;3.77;3.00;;;2.90;90.00;;;4.88;61.57;97117.78;5010068;28;20045;-60
2023/11/27 02:26:41;;;;;;;7.67;3.03;;;2.90;88.90;;;4.88;62.31;97104.59;5010562;28;20045;-60
2023/11/27 02:29:08;;;;;;;6.30;3.53;;;2.90;89.00;;;4.87;61.82;97100.31;5010598;28;20046;-60
2023/11/27 02:31:37;;;;;;;4.40;3.10;;;2.80;88.60;;;4.84;61.72;97105.03;5010183;28;20045;-59
2023/11/27 02:34:05;;;;;;;4.47;2.80;;;2.90;88.60;;;4.85;61.66;97098.81;5009935;28;20050;-59
2023/11/27 02:36:39;;;;;;;6.60;3.33;;;2.90;88.40;;;4.84;61.67;97095.31;5010749;28;20038;-60
2023/11/27 02:39:07;;;;;;;4.97;2.90;;;2.90;88.70;;;4.87;62.31;97099.50;5010431;28;20049;-59
2023/11/27 02:41:38;;;;;;;4.67;3.57;;;2.90;88.20;;;4.84;61.93;97091.84;4994027;28;20388;-60
2023/11/27 02:44:06;;;;;;;4.53;2.83;;;2.90;88.40;;;4.83;61.32;97093.66;4993577;28;20049;-59
2023/11/27 02:46:34;;;;;;;4.47;3.10;;;2.90;88.10;;;4.84;61.98;97092.66;5010153;28;20050;-59
2023/11/27 02:49:01;;;;;;;6.07;2.93;;;2.80;87.90;;;4.82;61.40;97088.53;5010213;28;20042;-59
2023/11/27 02:51:29;;;;;;;5.20;3.47;;;2.90;88.40;;;4.82;61.16;97080.59;5010418;28;20046;-59
2023/11/27 02:53:57;;;;;;;3.70;2.70;;;2.80;88.40;;;4.84;61.86;97076.84;5009700;28;20052;-59
2023/11/27 02:56:24;;;;;;;5.30;3.03;;;2.90;88.40;;;4.87;61.61;97065.22;5011062;28;20044;-60
2023/11/27 02:58:53;;;;;;;3.90;2.63;;;2.90;88.10;;;4.85;61.71;97060.06;5010215;28;20049;-60
2023/11/27 03:01:26;;;;;;;3.43;2.67;;;2.90;87.30;;;4.84;61.93;97068.09;5010150;28;20427;-59
2023/11/27 03:03:54;;;;;;;5.22;3.22;;;2.90;88.00;;;4.85;61.55;97072.44;5010929;28;20046;-59
2023/11/27 03:06:21;;;;;;;4.70;2.67;;;2.90;87.30;;;4.80;61.98;97064.91;5010295;28;20065;-60
2023/11/27 03:08:49;;;;;;;5.70;3.10;;;2.80;86.90;;;4.81;61.50;97063.97;5009778;28;20045;-59
2023/11/27 03:11:17;;;;;;;4.87;3.10;;;2.90;87.50;;;4.82;62.03;97062.97;5010973;28;20430;-59
2023/11/27 03:13:44;;;;;;;4.00;3.00;;;2.90;87.60;;;4.83;61.88;97058.56;5009448;28;20049;-59
2023/11/27 03:16:12;;;;;;;3.90;2.97;;;2.90;86.70;;;4.87;62.02;97058.13;5010618;28;20049;-60
2023/11/27 03:18:40;;;;;;;8.03;3.23;;;2.90;87.30;;;4.92;61.77;97047.13;5010006;28;20045;-60
2023/11/27 03:21:18;;;;;;;5.90;2.93;;;2.90;87.00;;;4.95;61.23;97049.50;5009607;28;20215;-60
2023/11/27 03:23:46;;;;;;;6.23;3.27;;;2.90;87.30;;;4.94;60.98;97047.81;5010726;28;20050;-59
2023/11/27 03:26:16;;;;;;;5.43;2.87;;;2.90;86.30;;;4.95;61.66;97046.88;5012537;28;20056;-60
2023/11/27 03:28:44;;;;;;;4.97;2.63;;;2.90;86.90;;;4.95;61.07;97051.31;5014080;28;20431;-60
2023/11/27 03:31:11;;;;;;;4.97;3.10;;;2.90;87.10;;;4.91;60.95;97043.69;5013819;28;20060;-60
2023/11/27 03:33:42;;;;;;;6.43;4.17;;;2.80;87.00;;;4.85;61.62;97040.78;5013937;28;20038;-60
2023/11/27 03:36:10;;;;;;;4.47;2.63;;;2.80;87.30;;;4.79;61.63;97047.44;5013966;28;20042;-60
2023/11/27 03:38:37;;;;;;;6.50;3.27;;;2.80;86.70;;;4.79;61.69;97042.16;5014532;28;20046;-60
2023/11/27 03:41:06;;;;;;;4.83;2.93;;;2.80;88.00;;;4.78;60.90;97031.75;5013709;28;20050;-60
2023/11/27 03:43:33;;;;;;;8.80;3.10;;;2.70;87.30;;;4.72;61.71;97026.06;5014814;28;20052;-60
2023/11/27 03:46:01;;;;;;;4.77;2.90;;;2.70;87.90;;;4.72;61.79;97028.69;5013286;28;20384;-59
2023/11/27 03:48:28;;;;;;;7.20;3.70;;;2.70;88.60;;;4.73;61.19;97032.19;5013270;28;20076;-60
2023/11/27 03:50:56;;;;;;;3.87;2.97;;;2.70;87.50;;;4.74;61.79;97029.38;5013359;28;20052;-60
2023/11/27 03:53:24;;;;;;;6.50;2.90;;;2.80;87.50;;;4.74;61.04;97024.09;5013187;28;20053;-59
2023/11/27 03:55:52;;;;;;;5.60;2.93;;;2.70;87.50;;;4.68;60.75;97022.03;5014273;28;20048;-60
2023/11/27 03:58:22;;;;;;;4.17;2.67;;;2.60;87.20;;;4.70;61.49;97017.44;4997332;28;20042;-60
2023/11/27 04:00:49;;;;;;;5.07;3.10;;;2.60;87.60;;;4.69;61.06;97015.81;5013155;28;20046;-60
2023/11/27 04:03:17;;;;;;;4.27;3.17;;;2.60;87.80;;;4.71;61.61;97010.38;5014282;28;20038;-60
2023/11/27 04:05:47;;;;;;;4.30;2.87;;;2.60;87.50;;;4.70;61.22;97006.09;5013932;28;20056;-59
2023/11/27 04:08:14;;;;;;;4.50;3.03;;;2.60;87.80;;;4.66;61.29;97009.97;5012976;28;20053;-60
2023/11/27 04:10:42;;;;;;;5.33;2.67;;;2.60;87.70;;;4.65;61.37;97011.78;5012697;28;20045;-60
2023/11/27 04:13:10;;;;;;;4.97;2.53;;;2.60;87.80;;;4.57;61.54;97006.34;5012889;28;20053;-60
2023/11/27 04:15:38;;;;;;;3.40;2.60;;;2.50;88.10;;;4.57;61.30;97005.53;5012510;28;20037;-60
2023/11/27 04:18:06;;;;;;;5.27;2.90;;;2.50;88.40;;;4.54;61.17;97006.66;5014133;28;20049;-60
2023/11/27 04:20:34;;;;;;;4.30;2.60;;;2.40;88.50;;;4.54;61.55;97001.38;5014164;28;20042;-60
2023/11/27 04:23:02;;;;;;;5.03;2.83;;;2.40;88.70;;;4.57;61.08;97005.53;5004556;28;20399;-60
2023/11/27 04:25:30;;;;;;;6.13;3.53;;;2.50;88.60;;;4.56;61.86;97001.25;5012443;28;20056;-60
2023/11/27 04:27:58;;;;;;;5.77;4.07;;;2.40;88.20;;;4.53;61.21;96997.88;5012884;28;20060;-60
2023/11/27 04:30:26;;;;;;;5.93;3.27;;;2.40;88.90;;;4.51;61.58;96991.91;5012438;28;20050;-60
2023/11/27 04:32:55;;;;;;;4.10;2.97;;;2.40;88.40;;;4.51;61.76;96988.47;5010749;28;20042;-60
2023/11/27 04:35:23;;;;;;;4.47;2.73;;;2.40;88.50;;;4.52;61.99;96983.06;5013100;28;20045;-59
2023/11/27 04:37:51;;;;;;;4.97;3.00;;;2.40;89.10;;;4.57;61.77;96973.88;5013435;28;20041;-60
2023/11/27 04:40:19;;;;;;;3.17;2.50;;;2.50;88.60;;;4.59;62.02;96978.03;5013518;28;20411;-60
2023/11/27 04:42:46;;;;;;;4.33;2.77;;;2.50;88.20;;;4.60;62.09;96976.25;5013563;28;20089;-60
2023/11/27 04:45:14;;;;;;;5.53;3.17;;;2.50;88.20;;;4.60;61.55;96974.44;5012921;28;20042;-60
2023/11/27 04:47:42;;;;;;;4.43;3.80;;;2.60;88.00;;;4.63;61.81;96970.69;5013644;28;20524;-60
2023/11/27 04:50:10;;;;;;;3.80;2.63;;;2.60;87.90;;;4.62;61.68;96967.22;5013437;28;20042;-60
2023/11/27 04:52:37;;;;;;;3.80;2.77;;;2.60;87.90;;;4.66;61.82;96965.16;5013507;28;20041;-60
2023/11/27 04:55:05;;;;;;;4.70;2.87;;;2.60;88.00;;;4.66;61.85;96960.69;5013675;28;20041;-60
2023/11/27 04:57:33;;;;;;;5.40;2.97;;;2.60;87.60;;;4.65;61.21;96960.84;5013307;28;20045;-60
2023/11/27 05:00:02;;;;;;;4.90;2.57;;;2.50;87.80;;;4.61;61.52;96956.81;5013169;28;20049;-60
2023/11/27 05:02:30;;;;;;;5.87;2.70;;;2.50;87.50;;;4.59;61.33;96953.50;5013039;28;20037;-60
2023/11/27 05:04:58;;;;;;;3.60;2.70;;;2.50;87.70;;;4.53;61.70;96953.06;5013128;28;20094;-59
2023/11/27 05:07:25;;;;;;;6.83;2.93;;;2.50;88.10;;;4.52;61.02;96950.59;5013157;28;20045;-60
2023/11/27 05:09:53;;;;;;;7.13;2.80;;;2.50;88.40;;;4.54;61.83;96938.09;5012902;28;20057;-60
2023/11/27 05:12:21;;;;;;;3.03;2.07;;;2.50;87.90;;;4.57;61.46;96931.72;5012721;28;20058;-60
2023/11/27 05:15:00;;;;;;;4.43;2.60;;;2.50;87.70;;;4.50;61.17;96931.47;5012595;28;20532;-60
2023/11/27 05:17:27;;;;;;;4.60;2.40;;;2.50;87.40;;;4.51;61.92;96918.09;5012770;28;20381;-60
2023/11/27 05:19:55;;;;;;;6.73;2.70;;;2.50;87.60;;;4.57;61.48;96913.25;5012816;28;20042;-59
2023/11/27 05:22:23;;;;;;;4.73;3.03;;;2.60;87.50;;;4.54;61.64;96909.09;5012837;28;20053;-60
2023/11/27 05:24:50;;;;;;;4.10;2.73;;;2.60;87.70;;;4.59;61.68;96913.94;5012815;28;20045;-60
2023/11/27 05:27:18;;;;;;;4.20;2.40;;;2.60;87.40;;;4.62;61.83;96905.75;5012685;28;20053;-60
2023/11/27 05:29:46;;;;;;;5.63;2.50;;;2.60;87.60;;;4.59;61.07;96912.13;5013023;28;20407;-59
2023/11/27 05:32:13;;;;;;;14.13;6.60;;;2.60;87.10;;;4.60;61.58;96905.06;5012985;28;20479;-59
2023/11/27 05:34:41;;;;;;;17.43;9.23;;;2.60;87.50;;;4.63;61.35;96915.31;5012070;28;20054;-59
2023/11/27 05:37:08;;;;;;;16.90;10.50;;;2.60;87.40;;;4.62;61.88;96905.75;5010531;28;20046;-59
2023/11/27 05:39:37;;;;;;;15.83;11.30;;;2.60;87.10;;;4.61;61.36;96901.44;5012044;28;20056;-59
2023/11/27 05:42:05;;;;;;;27.37;24.37;;;2.60;87.60;;;4.64;61.41;96903.81;5012594;28;20057;-59
2023/11/27 05:44:33;;;;;;;9.27;8.33;;;2.60;87.20;;;4.65;61.65;96906.31;5011857;28;20052;-59
2023/11/27 05:47:00;;;;;;;7.47;5.73;;;2.60;87.50;;;4.63;61.35;96900.31;5012489;28;20339;-59
2023/11/27 05:49:30;;;;;;;10.27;9.27;;;2.60;86.90;;;4.66;61.88;96891.31;5011713;28;20046;-59
2023/11/27 05:51:59;;;;;;;6.77;5.60;;;2.70;87.20;;;4.67;61.52;96890.34;5012140;28;20072;-59
2023/11/27 05:54:27;;;;;;;7.00;3.70;;;2.70;86.90;;;4.62;61.46;96890.78;5010645;28;20069;-59
2023/11/27 05:56:54;;;;;;;6.17;3.80;;;2.60;86.50;;;4.63;61.48;96888.97;5012133;28;20053;-59
2023/11/27 05:59:22;;;;;;;7.07;6.37;;;2.60;86.60;;;4.62;61.41;96885.50;5011745;28;20418;-59
2023/11/27 06:01:51;;;;;;;5.73;4.20;;;2.60;86.50;;;4.58;61.34;96884.13;5012217;28;20038;-59
2023/11/27 06:04:19;;;;;;;9.60;6.03;;;2.60;86.80;;;4.57;61.38;96882.44;5010469;28;20053;-59
2023/11/27 06:06:47;;;;;;;7.47;5.30;;;2.60;86.90;;;4.58;61.63;96880.66;5011857;28;20041;-60
2023/11/27 06:09:15;;;;;;;27.27;11.57;;;2.60;86.70;;;4.61;60.99;96877.72;5011781;28;20603;-59
2023/11/27 06:11:43;;;;;;;66.30;28.53;;;2.60;86.70;;;4.58;61.75;96870.13;5011780;28;20415;-59
2023/11/27 06:14:11;;;;;;;34.93;16.77;;;2.60;86.60;;;4.56;61.25;96866.78;5011422;28;20050;-59
2023/11/27 06:16:38;;;;;;;45.67;19.40;;;2.60;86.60;;;4.55;61.66;96863.31;5011919;28;20304;-59
2023/11/27 06:19:07;;;;;;;10.10;5.93;;;2.60;86.20;;;4.54;61.39;96859.84;5011913;28;20046;-60
2023/11/27 06:21:35;;;;;;;5.70;2.90;;;2.60;86.50;;;4.57;61.38;96860.53;5011768;28;20475;-60
2023/11/27 06:24:03;;;;;;;3.57;2.63;;;2.50;86.10;;;4.58;61.26;96856.94;5011561;28;20065;-60
2023/11/27 06:26:30;;;;;;;10.30;4.73;;;2.60;85.70;;;4.62;61.13;96853.84;5011637;28;20045;-60
2023/11/27 06:28:58;;;;;;;12.93;8.33;;;2.70;86.00;;;4.65;61.41;96850.94;5012233;28;20534;-60
2023/11/27 06:31:25;;;;;;;31.63;15.07;;;2.70;85.70;;;4.66;60.71;96846.50;5011772;28;20419;-60
2023/11/27 06:33:53;;;;;;;8.80;4.97;;;2.70;84.90;;;4.64;60.54;96851.09;5010101;28;20419;-60
2023/11/27 06:36:22;;;;;;;37.93;16.30;;;2.70;85.30;;;4.62;60.50;96847.75;5010639;28;20042;-60
2023/11/27 06:38:49;;;;;;;36.23;17.80;;;2.70;85.50;;;4.65;61.54;96850.94;5011692;28;20210;-60
2023/11/27 06:41:17;;;;;;;13.73;8.50;;;2.70;85.20;;;4.65;60.39;96837.75;5011436;28;20495;-60
2023/11/27 06:43:45;;;;;;;7.30;3.77;;;2.70;85.00;;;4.63;61.01;96839.69;5010958;28;20043;-60
2023/11/27 06:46:14;;;;;;;5.70;3.50;;;2.70;85.60;;;4.65;60.45;96837.75;5011342;28;20057;-59
2023/11/27 06:48:42;;;;;;;6.23;3.83;;;2.70;84.80;;;4.63;60.89;96833.59;5011413;28;20045;-60
2023/11/27 06:51:10;;;;;;;9.43;4.10;;;2.60;84.80;;;4.60;60.99;96832.09;5011380;28;20419;-60
2023/11/27 06:53:37;;;;;;;4.73;2.60;;;2.70;86.00;;;4.63;61.16;96825.69;5011205;28;20053;-60
2023/11/27 06:56:07;;;;;;;6.50;5.53;;;2.70;85.30;;;4.65;60.76;96823.72;5011251;28;20046;-60
2023/11/27 06:58:35;;;;;;;6.27;4.10;;;2.70;85.00;;;4.66;61.35;96826.22;5010930;28;20042;-59
2023/11/27 07:01:04;;;;;;;2.43;2.17;;;2.70;85.10;;;4.68;60.89;96824.28;5011041;28;20046;-59
2023/11/27 07:03:32;;;;;;;3.20;2.13;;;2.80;84.30;;;4.69;61.10;96818.03;5011120;28;20046;-59
2023/11/27 07:05:59;;;;;;;4.30;2.30;;;2.80;85.20;;;4.72;60.44;96822.19;5011264;28;20037;-59
2023/11/27 07:08:27;;;;;;;10.80;4.93;;;2.80;84.10;;;4.73;60.97;96819.41;5011109;28;20049;-61
2023/11/27 07:10:55;;;;;;;6.23;3.77;;;2.80;84.60;;;4.71;60.45;96818.72;5011123;28;20496;-60
2023/11/27 07:13:24;;;;;;;7.90;5.03;;;2.80;84.20;;;4.77;60.98;96819.09;5009808;28;20511;-60
2023/11/27 07:15:52;;;;;;;7.97;4.20;;;2.80;84.70;;;4.80;61.06;96816.19;5010251;28;20038;-60
2023/11/27 07:18:20;;;;;;;5.37;4.10;;;2.80;83.80;;;4.72;60.75;96811.63;5010971;28;20388;-60
2023/11/27 07:20:53;;;;;;;5.97;4.30;;;2.80;83.90;;;4.76;60.61;96805.09;5011098;28;20049;-60
2023/11/27 07:23:22;;;;;;;5.93;3.60;;;2.80;83.70;;;4.74;61.04;96802.59;5010920;28;20073;-61
2023/11/27 07:25:50;;;;;;;4.47;2.90;;;2.80;84.00;;;4.77;60.95;96795.38;5010388;28;20064;-60
2023/11/27 07:28:18;;;;;;;4.70;3.33;;;2.90;84.60;;;4.77;60.54;96795.38;5009750;28;20392;-62
2023/11/27 07:30:46;;;;;;;5.03;2.40;;;2.90;83.50;;;4.75;60.89;96787.63;5010939;28;20052;-61
2023/11/27 07:33:14;;;;;;;5.43;2.27;;;2.90;83.00;;;4.80;61.08;96777.44;5006689;28;20404;-61
2023/11/27 07:35:42;;;;;;;2.93;2.13;;;2.90;83.10;;;4.84;60.58;96775.34;5010787;28;20278;-60
2023/11/27 07:38:10;;;;;;;4.00;2.00;;;3.00;83.00;;;4.88;60.47;96769.63;5010770;28;20105;-60
2023/11/27 07:40:37;;;;;;;4.20;2.37;;;3.00;82.80;;;4.89;60.33;96771.31;5010488;28;20053;-60
2023/11/27 07:43:10;;;;;;;3.87;1.97;;;3.00;81.90;;;4.95;59.81;96769.06;5009512;28;20042;-59
2023/11/27 07:45:39;;;;;;;4.55;2.10;;;3.00;82.00;;;5.00;60.22;96757.09;5010517;28;20046;-59
2023/11/27 07:48:07;;;;;;;3.87;2.00;;;3.10;82.30;;;5.06;59.83;96750.38;5010366;28;20061;-59
2023/11/27 07:50:36;;;;;;;2.97;1.77;;;3.10;81.80;;;5.10;59.71;96752.59;5010407;28;20046;-60
2023/11/27 07:53:04;;;;;;;3.43;1.80;;;3.20;81.20;;;5.08;60.04;96745.81;5007741;28;20534;-60
2023/11/27 07:55:32;;;;;;;4.07;2.40;;;3.20;80.80;;;5.08;59.92;96746.63;5006225;28;20090;-60
2023/11/27 07:58:02;;;;;;;3.87;1.80;;;3.20;81.20;;;5.09;60.31;96755.38;5001061;28;20422;-60
2023/11/27 08:00:31;;;;;;;2.73;2.03;;;3.10;81.70;;;5.11;59.24;96746.31;5010388;28;20042;-60
2023/11/27 08:02:59;;;;;;;2.73;1.90;;;3.20;81.10;;;5.13;60.13;96744.34;5010405;28;20046;-59
2023/11/27 08:05:29;;;;;;;2.67;1.90;;;3.20;81.50;;;5.15;59.97;96748.66;5010012;28;20491;-59
2023/11/27 08:08:00;;;;;;;1.92;1.55;;;3.20;81.20;;;5.17;59.45;96744.88;5010674;28;20038;-59
2023/11/27 08:10:28;;;;;;;4.33;2.03;;;3.30;81.40;;;5.21;59.82;96740.97;5010347;28;20511;-59
2023/11/27 08:12:56;;;;;;;2.93;1.57;;;3.30;81.10;;;5.23;59.38;96738.19;5014156;28;20052;-59
2023/11/27 08:15:24;;;;;;;4.37;1.83;;;3.30;81.00;;;5.28;59.39;96738.56;5013804;28;20046;-59
2023/11/27 08:17:55;;;;;;;2.83;1.87;;;3.40;80.20;;;5.30;59.73;96740.06;5014090;28;20112;-59
2023/11/27 08:20:28;;;;;;;3.03;2.23;;;3.50;79.90;;;5.31;59.24;96733.84;5013640;28;20411;-59
2023/11/27 08:22:59;;;;;;;2.70;1.90;;;3.50;80.00;;;5.32;59.09;96737.28;5014167;28;20366;-58
2023/11/27 08:25:28;;;;;;;2.67;1.53;;;3.50;79.60;;;5.33;59.03;96723.09;5013674;28;20056;-59
2023/11/27 08:27:56;;;;;;;3.80;1.47;;;3.50;79.50;;;5.37;59.96;96721.84;5013804;28;20057;-58
2023/11/27 08:30:27;;;;;;;2.37;1.70;;;3.60;79.50;;;5.35;59.00;96718.53;5013679;28;20052;-58
2023/11/27 08:32:55;;;;;;;3.97;1.60;;;3.60;79.00;;;5.36;58.95;96714.91;5012787;28;20050;-59
2023/11/27 08:35:23;;;;;;;2.03;1.27;;;3.50;79.00;;;5.41;59.41;96719.72;5013395;28;20038;-59
2023/11/27 08:37:50;;;;;;;2.50;1.57;;;3.60;78.40;;;5.44;58.90;96709.69;5012907;28;20495;-58
2023/11/27 08:40:18;;;;;;;2.73;1.80;;;3.60;79.10;;;5.46;58.69;96712.16;5012189;28;20065;-58
2023/11/27 08:42:46;;;;;;;2.67;1.57;;;3.60;78.70;;;5.43;58.74;96701.91;5013364;28;20038;-58
2023/11/27 08:45:17;;;;;;;3.67;1.50;;;3.60;78.80;;;5.44;59.21;96698.31;5013364;28;20049;-58
2023/11/27 08:47:50;;;;;;;2.47;1.83;;;3.50;79.10;;;5.47;59.55;96698.00;5006085;28;20518;-58
2023/11/27 08:50:24;;;;;;;;;;;3.60;79.40;;;5.52;59.61;96696.56;5013911;28;20104;-58
2023/11/27 08:52:57;;;;;;;3.20;1.70;;;3.70;77.80;;;5.56;58.40;96686.50;5012418;28;20398;-58
2023/11/27 08:55:29;;;;;;;3.08;1.70;;;3.70;79.00;;;5.62;58.63;96687.72;5012958;28;20042;-58
2023/11/27 08:58:01;;;;;;;2.37;1.50;;;3.80;78.00;;;5.63;58.95;96687.56;5012385;28;20046;-58
2023/11/27 09:00:32;;;;;;;2.47;1.60;;;3.80;77.80;;;5.66;58.86;96681.97;5009304;28;20108;-58
2023/11/27 09:03:00;;;;;;;6.30;1.60;;;3.80;77.50;;;5.66;59.03;96668.78;5013298;28;20041;-58
2023/11/27 09:05:33;;;;;;;5.83;1.77;;;3.80;77.90;;;5.72;58.08;96665.53;5013229;28;20069;-59
2023/11/27 09:08:05;;;;;;;7.27;2.10;;;3.90;78.10;;;5.80;58.21;96664.75;5012136;28;20049;-58
2023/11/27 09:10:35;;;;;;;5.88;3.58;;;4.10;76.10;;;5.83;58.79;96666.22;5012889;28;20053;-59
2023/11/27 09:13:07;;;;;;;4.67;2.50;;;4.10;76.60;;;5.88;58.72;96662.16;5013158;28;20519;-59
2023/11/27 09:15:35;;;;;;;3.90;1.90;;;4.20;75.30;;;5.93;57.95;96659.03;5012534;28;20053;-58
2023/11/27 09:18:03;;;;;;;5.27;2.70;;;4.20;75.20;;;5.99;57.54;96658.47;5013148;28;20049;-58
2023/11/27 09:20:31;;;;;;;5.40;2.97;;;4.20;75.80;;;6.02;58.12;96658.13;5012777;28;20439;-58
2023/11/27 09:22:58;;;;;;;6.37;1.90;;;4.20;75.60;;;6.04;57.79;96644.75;5011629;28;20049;-61
2023/11/27 09:25:26;;;;;;;5.40;2.27;;;4.30;76.10;;;6.09;58.31;96638.03;5012510;28;20056;-60
2023/11/27 09:27:54;;;;;;;2.80;1.70;;;4.30;75.60;;;6.13;57.45;96641.19;5011749;28;20044;-62
2023/11/27 09:30:21;;;;;;;1.80;1.40;;;4.30;75.60;;;6.12;57.17;96642.16;5012680;28;20042;-62
2023/11/27 09:32:51;;;;;;;2.63;1.70;;;4.40;74.30;;;6.15;57.38;96641.03;5012711;28;20046;-62
2023/11/27 09:35:19;;;;;;;4.00;2.30;;;4.40;73.70;;;6.21;57.65;96643.84;5011882;28;20094;-62
2023/11/27 09:37:47;;;;;;;3.37;2.17;;;4.40;74.50;;;6.22;57.72;96636.75;5010644;28;20073;-61
2023/11/27 09:40:16;;;;;;;5.00;3.10;;;4.40;74.50;;;6.21;57.00;96629.81;5011067;28;20049;-62
2023/11/27 09:42:44;;;;;;;4.70;1.47;;;4.40;73.40;;;6.23;57.52;96623.38;5011138;28;20049;-62
2023/11/27 09:45:19;;;;;;;4.67;1.87;;;4.40;73.60;;;6.25;57.35;96613.47;5012553;28;20049;-62
2023/11/27 09:47:49;;;;;;;2.80;1.97;;;4.40;73.90;;;6.28;57.14;96607.88;5005179;28;20049;-62
2023/11/27 09:50:20;;;;;;;2.37;1.70;;;4.50;74.00;;;6.31;57.07;96599.63;5012331;28;20057;-61
2023/11/27 09:53:05;;;;;;;2.87;1.50;;;4.50;74.40;;;6.36;56.49;96599.16;4994240;28;20392;-62
2023/11/27 09:55:35;;;;;;;1.60;1.13;;;4.50;74.10;;;6.40;57.21;96586.44;5012107;28;20069;-62
2023/11/27 09:58:05;;;;;;;2.57;1.60;;;4.60;74.10;;;6.42;56.91;96589.75;5011077;28;20045;-59
2023/11/27 10:00:34;;;;;;;3.23;1.50;;;4.60;73.80;;;6.44;56.68;96583.31;5012054;28;20511;-62
2023/11/27 10:03:04;;;;;;;2.60;1.30;;;4.60;73.70;;;6.48;56.25;96575.88;5012226;28;20046;-61
2023/11/27 10:05:32;;;;;;;3.23;1.40;;;4.70;73.60;;;6.51;56.87;96572.91;5011546;28;20076;-62
2023/11/27 10:08:03;;;;;;;3.23;1.80;;;4.70;73.10;;;6.52;56.28;96555.25;5012304;28;20045;-62
2023/11/27 10:10:31;;;;;;;3.57;1.70;;;4.70;72.80;;;6.58;56.69;96546.66;5011904;28;20118;-62
2023/11/27 10:13:03;;;;;;;2.00;1.30;;;4.80;73.00;;;6.60;56.18;96539.38;5012093;28;20296;-62
2023/11/27 10:15:38;;;;;;;3.97;1.53;;;4.80;72.80;;;6.58;55.93;96536.06;5011563;28;20041;-62
2023/11/27 10:18:08;;;;;;;1.87;1.47;;;4.80;72.80;;;6.61;56.18;96525.16;5012158;28;20053;-62
2023/11/27 10:20:40;;;;;;;2.20;1.50;;;4.80;71.60;;;6.65;56.32;96516.75;5011643;28;20049;-62
2023/11/27 10:23:11;;;;;;;3.93;1.63;;;4.80;71.40;;;6.66;56.06;96501.69;5011834;28;20515;-62
2023/11/27 10:25:39;;;;;;;2.93;1.60;;;4.80;71.70;;;6.71;55.94;96499.41;5011681;28;20046;-61
2023/11/27 10:28:06;;;;;;;3.17;1.80;;;4.90;72.10;;;6.68;55.85;96489.13;5011625;28;20053;-62
2023/11/27 10:30:36;;;;;;;5.17;1.97;;;4.90;71.10;;;6.69;55.38;96477.56;5011562;28;20500;-62
2023/11/27 10:33:03;;;;;;;2.63;1.17;;;4.90;71.70;;;6.74;55.80;96482.34;5008715;28;20061;-62
2023/11/27 10:35:32;;;;;;;3.57;1.27;;;5.00;71.90;;;6.73;55.40;96478.03;5008979;28;20423;-62
2023/11/27 10:38:01;;;;;;;1.47;1.10;;;4.90;71.00;;;6.78;55.46;96465.16;5010302;28;20065;-62